Terminal Aerodrome Forecast
Issued by NWS North Platte, NE

Home | Current Version | Previous Version | Text Only | Print | Product List | Glossary On
Versions: 1 2 3 4 5 6 7 8 9 10 11 12 13 14
000
FTUS43 KLBF 291400 AAA
TAFLBF
TAF AMD
KLBF 291438Z 2915/3012 11006KT P6SM VCSH BKN050 BKN100 OVC200
      TEMPO 2915/2916 -SHRA BKN035
     FM291600 11006KT P6SM SCT050 BKN200
     FM300000 08005KT P6SM BKN200=

USA.gov is the U.S. government's official web portal to all federal, state and local government web resources and services.